Time;durP1;ratioP1;P1;durP2;ratioP2;P2;SDS_P1;SDS_P2;PMS_P1;PMS_P2;Temp;Humidity;BMP_temperature;BMP_pressure;BME280_temperature;BME280_humidity;BME280_pressure;Samples;Min_cycle;Max_cycle;Signal;HPM_P1;HPM_P2
2020/12/31 00:00:09;;;;;;;205.13;92.68;;;;;;;2.96;100.00;98109.91;2032853;29;20242;-75
2020/12/31 00:01:11;;;;;;;188.90;91.28;;;;;;;2.97;100.00;98114.91;2032873;29;20242;-75
2020/12/31 00:02:13;;;;;;;189.02;93.20;;;;;;;2.94;100.00;98110.16;2032929;29;20595;-75
2020/12/31 00:03:14;;;;;;;185.77;92.30;;;;;;;2.91;100.00;98105.44;2032824;29;20600;-75
2020/12/31 00:04:15;;;;;;;198.63;95.32;;;;;;;2.98;100.00;98115.69;2032866;29;20593;-75
2020/12/31 00:05:16;;;;;;;191.10;91.47;;;;;;;3.01;100.00;98115.94;2033542;29;20231;-75
2020/12/31 00:06:17;;;;;;;193.20;93.68;;;;;;;2.94;100.00;98109.38;2033437;29;20253;-75
2020/12/31 00:07:18;;;;;;;186.90;94.20;;;;;;;3.01;100.00;98121.22;2033590;29;20224;-75
2020/12/31 00:08:19;;;;;;;185.43;89.97;;;;;;;2.99;100.00;98112.78;2033553;29;20227;-75
2020/12/31 00:09:20;;;;;;;176.93;90.20;;;;;;;2.99;100.00;98112.00;2032891;29;20259;-75
2020/12/31 00:10:21;;;;;;;192.75;90.15;;;;;;;3.01;100.00;98121.22;2032681;29;20290;-75
2020/12/31 00:11:22;;;;;;;189.53;89.60;;;;;;;3.04;100.00;98112.78;2024731;29;20232;-77
2020/12/31 00:12:23;;;;;;;177.93;91.15;;;;;;;3.02;100.00;98117.50;2032781;29;20463;-75
2020/12/31 00:13:25;;;;;;;185.53;90.40;;;;;;;3.06;100.00;98129.09;2033433;29;20255;-75
2020/12/31 00:14:25;;;;;;;187.60;93.80;;;;;;;3.05;100.00;98118.84;2032706;29;20785;-75
2020/12/31 00:15:27;;;;;;;187.93;89.23;;;;;;;3.09;100.00;98122.50;2032898;29;20959;-75
2020/12/31 00:16:27;;;;;;;196.40;93.43;;;;;;;3.08;100.00;98115.66;2033647;29;20752;-75
2020/12/31 00:17:29;;;;;;;185.37;90.73;;;;;;;3.05;100.00;98127.53;2032515;29;20587;-75
2020/12/31 00:18:29;;;;;;;189.77;91.60;;;;;;;3.06;100.00;98131.75;2032864;29;20227;-75
2020/12/31 00:19:31;;;;;;;182.00;91.27;;;;;;;2.91;100.00;98102.81;2033258;29;20254;-75
2020/12/31 00:20:32;;;;;;;171.32;85.05;;;;;;;3.05;100.00;98126.75;2033566;29;20227;-75
2020/12/31 00:21:33;;;;;;;181.68;89.05;;;;;;;3.13;100.00;98120.91;2032777;29;20352;-75
2020/12/31 00:22:34;;;;;;;195.88;92.25;;;;;;;3.00;100.00;98114.38;2032710;29;20307;-75
2020/12/31 00:23:35;;;;;;;192.03;92.37;;;;;;;3.13;100.00;98128.81;2033383;29;20744;-74
2020/12/31 00:24:36;;;;;;;190.90;93.80;;;;;;;3.03;100.00;98124.34;2033406;29;20263;-75
2020/12/31 00:25:47;;;;;;;177.10;88.13;;;;;;;3.11;100.00;98136.19;2033135;29;20714;-75
2020/12/31 00:26:48;;;;;;;178.32;86.85;;;;;;;3.10;100.00;98134.63;2033334;29;20259;-74
2020/12/31 00:27:49;;;;;;;183.90;89.03;;;;;;;3.09;100.00;98138.31;2033290;29;20228;-74
2020/12/31 00:28:51;;;;;;;183.25;85.93;;;;;;;3.09;100.00;98130.41;2032907;29;20722;-74
2020/12/31 00:29:52;;;;;;;186.00;89.90;;;;;;;3.07;100.00;98133.31;2032345;29;20259;-75
2020/12/31 00:30:53;;;;;;;190.48;88.53;;;;;;;3.18;100.00;98135.91;2032751;29;20236;-75
2020/12/31 00:31:54;;;;;;;184.70;88.63;;;;;;;3.15;100.00;98126.69;2032717;29;20246;-75
2020/12/31 00:32:55;;;;;;;183.35;85.90;;;;;;;3.19;100.00;98140.91;2032525;29;20242;-75
2020/12/31 00:33:56;;;;;;;179.73;85.37;;;;;;;3.13;100.00;98128.81;2032628;29;20299;-74
2020/12/31 00:34:58;;;;;;;169.25;82.05;;;;;;;3.10;100.00;98126.72;2032723;29;20238;-74
2020/12/31 00:35:58;;;;;;;174.23;83.05;;;;;;;3.19;100.00;98133.00;2032464;29;20224;-75
2020/12/31 00:36:59;;;;;;;179.87;87.43;;;;;;;3.19;100.00;98137.47;2032584;29;20231;-74
2020/12/31 00:38:00;;;;;;;175.65;82.93;;;;;;;3.19;100.00;98132.22;2033152;29;20235;-75
2020/12/31 00:39:02;;;;;;;170.93;79.97;;;;;;;3.15;100.00;98131.97;2032763;29;20259;-75
2020/12/31 00:40:04;;;;;;;176.07;82.30;;;;;;;3.22;100.00;98131.69;2032653;29;20224;-75
2020/12/31 00:41:06;;;;;;;168.65;82.80;;;;;;;3.23;100.00;98134.03;2032698;29;20287;-75
2020/12/31 00:42:07;;;;;;;173.68;83.43;;;;;;;3.11;100.00;98131.69;2032239;29;20258;-76
2020/12/31 00:43:09;;;;;;;174.77;82.00;;;;;;;3.21;100.00;98141.41;2032582;29;20255;-75
2020/12/31 00:44:11;;;;;;;163.67;79.40;;;;;;;3.18;100.00;98149.88;2032469;29;20239;-75
2020/12/31 00:45:12;;;;;;;173.65;77.90;;;;;;;3.18;100.00;98146.44;2032631;29;20236;-75
2020/12/31 00:46:13;;;;;;;175.20;81.97;;;;;;;3.03;100.00;98123.56;2032581;29;20753;-75
2020/12/31 00:47:14;;;;;;;176.55;81.05;;;;;;;3.10;100.00;98139.88;2032636;29;20635;-75
2020/12/31 00:48:15;;;;;;;166.63;78.10;;;;;;;3.24;100.00;98148.78;2032491;29;20585;-75
2020/12/31 00:49:16;;;;;;;170.40;79.95;;;;;;;3.22;100.00;98143.00;2032517;29;20247;-75
2020/12/31 00:50:17;;;;;;;164.40;78.60;;;;;;;3.14;100.00;98137.50;2032444;29;20235;-75
2020/12/31 00:51:18;;;;;;;173.45;80.75;;;;;;;3.21;100.00;98153.81;2033281;29;20219;-74
2020/12/31 00:52:19;;;;;;;161.60;75.63;;;;;;;3.25;100.00;98150.38;2032387;29;20283;-75
2020/12/31 00:53:20;;;;;;;163.70;79.10;;;;;;;3.17;100.00;98145.66;2032284;29;20594;-75
2020/12/31 00:54:22;;;;;;;179.00;82.57;;;;;;;3.19;100.00;98142.75;2032558;29;20249;-75
2020/12/31 00:55:22;;;;;;;166.23;80.43;;;;;;;3.15;100.00;98137.25;2024573;29;20232;-75
2020/12/31 00:56:27;;;;;;;178.73;84.13;;;;;;;3.15;100.00;98134.59;2025126;29;20999;-76
2020/12/31 00:57:28;;;;;;;166.52;78.57;;;;;;;3.14;100.00;98140.16;2032312;29;20306;-75
2020/12/31 00:58:29;;;;;;;166.70;77.83;;;;;;;3.15;100.00;98142.50;2032439;29;20234;-75
2020/12/31 00:59:31;;;;;;;170.55;79.47;;;;;;;3.08;100.00;98142.78;2032332;29;20258;-75
2020/12/31 01:00:33;;;;;;;168.40;80.80;;;;;;;3.14;100.00;98143.56;2032390;29;20231;-75
2020/12/31 01:01:38;;;;;;;185.32;84.72;;;;;;;3.10;100.00;98150.44;2032265;29;20606;-75
2020/12/31 01:02:39;;;;;;;174.40;83.63;;;;;;;3.08;100.00;98152.53;2033232;29;20239;-75
2020/12/31 01:03:40;;;;;;;177.82;80.57;;;;;;;3.07;100.00;98148.34;2033261;29;20785;-75
2020/12/31 01:04:41;;;;;;;174.10;80.13;;;;;;;3.04;100.00;98148.84;2032924;29;20644;-75
2020/12/31 01:05:42;;;;;;;166.57;77.65;;;;;;;3.01;100.00;98141.50;2033135;29;20231;-75
2020/12/31 01:06:43;;;;;;;173.43;79.30;;;;;;;2.87;100.00;98125.50;2032419;29;20227;-75
2020/12/31 01:07:44;;;;;;;182.98;85.22;;;;;;;2.92;100.00;98148.38;2032493;29;20684;-75
2020/12/31 01:08:45;;;;;;;184.73;86.07;;;;;;;2.89;100.00;98143.66;2032331;29;20246;-75
2020/12/31 01:09:46;;;;;;;185.85;88.35;;;;;;;2.80;100.00;98133.66;2032344;29;20235;-75
2020/12/31 01:10:47;;;;;;;177.70;86.17;;;;;;;2.81;100.00;98139.72;2032363;29;20254;-74
2020/12/31 01:11:48;;;;;;;178.55;82.40;;;;;;;2.81;100.00;98137.88;2032508;29;20224;-75
2020/12/31 01:12:49;;;;;;;175.60;84.07;;;;;;;2.76;100.00;98131.81;2033138;29;20228;-75
2020/12/31 01:13:50;;;;;;;176.38;83.45;;;;;;;2.78;100.00;98132.34;2032498;29;20222;-75
2020/12/31 01:14:52;;;;;;;190.00;86.90;;;;;;;2.64;100.00;98124.22;2032548;29;20302;-75
2020/12/31 01:15:52;;;;;;;193.13;87.95;;;;;;;2.75;100.00;98138.94;2032010;29;20227;-75
2020/12/31 01:16:54;;;;;;;184.10;89.67;;;;;;;2.75;100.00;98148.69;2032312;29;20314;-75
2020/12/31 01:17:54;;;;;;;185.77;87.63;;;;;;;2.66;100.00;98143.19;2032418;29;20235;-75
2020/12/31 01:18:56;;;;;;;180.90;86.00;;;;;;;2.66;100.00;98145.03;2032439;29;20238;-75
2020/12/31 01:19:56;;;;;;;177.95;83.22;;;;;;;2.71;100.00;98145.81;2033228;29;20257;-75
2020/12/31 01:20:58;;;;;;;180.07;82.30;;;;;;;2.70;100.00;98146.09;2032396;29;20246;-75
2020/12/31 01:21:58;;;;;;;187.50;83.57;;;;;;;2.68;100.00;98153.44;2032202;29;20223;-75
2020/12/31 01:23:00;;;;;;;173.43;82.30;;;;;;;2.65;100.00;98144.22;2032351;29;20255;-75
2020/12/31 01:24:00;;;;;;;184.25;85.53;;;;;;;2.60;100.00;98138.19;2033054;29;20235;-75
2020/12/31 01:25:02;;;;;;;183.37;81.53;;;;;;;2.64;100.00;98141.88;2032353;29;20234;-75
2020/12/31 01:26:02;;;;;;;175.00;81.93;;;;;;;2.63;100.00;98148.19;2024421;29;20283;-75
2020/12/31 01:27:04;;;;;;;184.73;76.73;;;;;;;2.62;100.00;98144.78;2032365;29;20314;-75
2020/12/31 01:28:04;;;;;;;184.05;79.43;;;;;;;2.61;100.00;98142.41;2033153;29;20223;-75
2020/12/31 01:29:06;;;;;;;186.77;80.13;;;;;;;2.66;100.00;98150.28;2032199;29;20315;-75
2020/12/31 01:30:08;;;;;;;176.50;79.00;;;;;;;2.53;100.00;98138.47;2024081;29;20238;-75
2020/12/31 01:31:09;;;;;;;176.25;78.15;;;;;;;2.56;100.00;98140.56;2032226;29;20294;-75
2020/12/31 01:32:10;;;;;;;192.35;84.15;;;;;;;2.59;100.00;98152.41;2024453;29;20628;-75
2020/12/31 01:33:11;;;;;;;178.57;78.90;;;;;;;2.55;100.00;98150.31;2032384;29;20236;-75
2020/12/31 01:34:12;;;;;;;190.10;81.05;;;;;;;2.55;100.00;98157.44;2032087;29;20714;-75
2020/12/31 01:35:13;;;;;;;179.63;77.97;;;;;;;2.54;100.00;98156.63;2032253;29;20698;-75
2020/12/31 01:36:14;;;;;;;174.07;76.72;;;;;;;2.54;100.00;98146.09;2032149;29;20707;-75
2020/12/31 01:37:16;;;;;;;193.70;81.10;;;;;;;2.48;100.00;98149.78;2024288;29;20236;-75
2020/12/31 01:38:17;;;;;;;177.05;77.30;;;;;;;2.54;100.00;98161.13;2032331;29;20286;-76
2020/12/31 01:39:18;;;;;;;179.37;78.17;;;;;;;2.50;100.00;98157.41;2032257;29;20274;-75
2020/12/31 01:40:19;;;;;;;187.88;75.55;;;;;;;2.49;100.00;98161.91;2024533;29;20719;-75
2020/12/31 01:41:24;;;;;;;184.43;77.47;;;;;;;2.42;100.00;98155.31;2032196;29;20653;-75
2020/12/31 01:42:25;;;;;;;188.52;77.38;;;;;;;2.46;100.00;98159.03;2032487;29;20634;-75
2020/12/31 01:43:26;;;;;;;199.27;81.07;;;;;;;2.45;100.00;98166.13;2032253;29;20223;-75
2020/12/31 01:44:27;;;;;;;192.32;76.32;;;;;;;2.48;100.00;98164.81;2032204;29;20235;-76
2020/12/31 01:45:29;;;;;;;216.50;76.50;;;;;;;2.48;100.00;98159.53;2032771;29;20678;-75
2020/12/31 01:46:32;;;;;;;181.90;73.35;;;;;;;2.47;100.00;98158.75;2032936;29;20697;-75
2020/12/31 01:47:33;;;;;;;207.68;80.13;;;;;;;2.47;100.00;98164.00;2032143;29;20267;-75
2020/12/31 01:48:34;;;;;;;183.27;73.50;;;;;;;2.41;100.00;98156.38;2032086;29;20231;-75
2020/12/31 01:49:36;;;;;;;199.27;76.83;;;;;;;2.40;100.00;98157.44;2032898;29;20219;-75
2020/12/31 01:50:37;;;;;;;196.73;74.72;;;;;;;2.39;100.00;98155.84;2032380;29;20286;-77
2020/12/31 01:51:40;;;;;;;206.30;75.57;;;;;;;2.38;100.00;98159.53;2032892;29;20224;-74
2020/12/31 01:52:41;;;;;;;209.98;76.22;;;;;;;2.36;100.00;98165.09;2032488;29;20646;-75
2020/12/31 01:53:42;;;;;;;199.67;79.13;;;;;;;2.37;100.00;98168.50;2031626;29;20310;-75
2020/12/31 01:54:45;;;;;;;180.88;73.28;;;;;;;2.39;100.00;98171.66;2031821;29;20235;-74
2020/12/31 01:55:46;;;;;;;202.27;77.80;;;;;;;2.36;100.00;98172.97;2031718;29;20722;-75
2020/12/31 01:56:48;;;;;;;195.82;75.78;;;;;;;2.33;100.00;98164.81;2031931;29;20690;-75
2020/12/31 01:57:51;;;;;;;196.98;76.53;;;;;;;2.33;100.00;98172.69;2031678;29;20227;-75
2020/12/31 01:58:52;;;;;;;193.18;76.45;;;;;;;2.35;100.00;98173.25;2031248;29;20597;-76
2020/12/31 01:59:54;;;;;;;207.53;75.77;;;;;;;2.39;100.00;98171.66;2024137;29;20223;-75
2020/12/31 02:00:56;;;;;;;199.48;74.22;;;;;;;2.47;100.00;98181.66;2024144;29;20287;-75
2020/12/31 02:01:58;;;;;;;205.10;73.68;;;;;;;2.40;100.00;98174.00;2024018;29;20255;-75
2020/12/31 02:02:59;;;;;;;171.95;71.68;;;;;;;2.27;100.00;98153.50;2031729;29;20569;-75
2020/12/31 02:04:00;;;;;;;183.33;72.80;;;;;;;2.37;100.00;98171.13;2032349;29;20331;-75
2020/12/31 02:05:01;;;;;;;193.75;71.80;;;;;;;2.25;100.00;98161.63;2032370;29;20262;-75
2020/12/31 02:06:02;;;;;;;184.15;72.07;;;;;;;2.29;100.00;98169.81;2031585;29;20239;-75
2020/12/31 02:07:03;;;;;;;185.87;70.33;;;;;;;2.31;100.00;98186.13;2031594;29;20235;-75
2020/12/31 02:08:05;;;;;;;192.63;73.00;;;;;;;2.23;100.00;98169.00;2032333;29;20227;-75
2020/12/31 02:09:07;;;;;;;183.07;71.53;;;;;;;2.33;100.00;98183.22;2032419;29;20227;-75
2020/12/31 02:10:08;;;;;;;182.57;70.82;;;;;;;2.32;100.00;98185.06;2031132;29;20670;-75
2020/12/31 02:11:09;;;;;;;185.93;73.60;;;;;;;2.31;100.00;98186.13;2031578;29;20554;-75
2020/12/31 02:12:10;;;;;;;179.82;72.55;;;;;;;2.28;100.00;98180.59;2032251;29;20235;-75
2020/12/31 02:13:11;;;;;;;192.23;74.40;;;;;;;2.24;100.00;98180.34;2032148;29;20237;-75
2020/12/31 02:14:12;;;;;;;190.80;71.55;;;;;;;2.36;100.00;98185.34;2031394;29;20306;-75
2020/12/31 02:15:15;;;;;;;181.30;70.07;;;;;;;2.40;100.00;98194.28;2023615;29;20232;-75
2020/12/31 02:16:18;;;;;;;175.73;68.68;;;;;;;2.42;100.00;98190.31;2031672;29;20231;-75
2020/12/31 02:17:19;;;;;;;175.52;68.55;;;;;;;2.30;100.00;98183.75;2032025;29;20310;-75
2020/12/31 02:18:20;;;;;;;196.27;65.38;;;;;;;2.36;100.00;98193.25;2032286;29;20589;-75
2020/12/31 02:19:21;;;;;;;182.73;67.37;;;;;;;2.37;100.00;98198.25;2032290;29;20310;-75
2020/12/31 02:20:22;;;;;;;179.45;66.72;;;;;;;2.21;100.00;98172.97;2030782;29;20228;-76
2020/12/31 02:21:25;;;;;;;181.63;68.40;;;;;;;2.33;100.00;98199.03;2031335;29;20314;-75
2020/12/31 02:22:27;;;;;;;167.20;66.03;;;;;;;2.30;100.00;98200.34;2031314;29;20589;-75
2020/12/31 02:23:28;;;;;;;162.98;66.95;;;;;;;2.29;100.00;98204.03;2031559;29;20227;-75
2020/12/31 02:24:29;;;;;;;172.52;67.72;;;;;;;2.24;100.00;98196.91;2031008;29;20243;-75
2020/12/31 02:25:30;;;;;;;186.60;70.63;;;;;;;2.33;100.00;98199.03;2031553;29;20302;-75
2020/12/31 02:26:32;;;;;;;186.23;70.28;;;;;;;2.30;100.00;98200.34;2032193;29;20227;-75
2020/12/31 02:27:34;;;;;;;177.68;68.20;;;;;;;2.33;100.00;98204.28;2032103;29;20683;-75
2020/12/31 02:28:34;;;;;;;174.52;69.45;;;;;;;2.23;100.00;98194.53;2031460;29;20223;-75
2020/12/31 02:29:36;;;;;;;186.47;72.20;;;;;;;2.29;100.00;98203.25;2031570;29;20714;-75
2020/12/31 02:30:36;;;;;;;174.07;68.07;;;;;;;2.30;100.00;98207.44;2031452;29;20679;-75
2020/12/31 02:31:38;;;;;;;180.27;71.27;;;;;;;2.26;100.00;98200.09;2031257;29;20583;-75
2020/12/31 02:32:39;;;;;;;186.63;70.03;;;;;;;2.29;100.00;98206.66;2031690;29;20227;-75
2020/12/31 02:33:43;;;;;;;186.50;71.07;;;;;;;2.30;100.00;98197.72;2031428;29;20231;-75
2020/12/31 02:34:44;;;;;;;192.30;69.60;;;;;;;2.30;100.00;98200.34;2031395;29;20590;-75
2020/12/31 02:35:45;;;;;;;167.00;70.13;;;;;;;2.33;100.00;98206.91;2031437;29;20310;-75
2020/12/31 02:36:46;;;;;;;175.00;69.72;;;;;;;2.30;100.00;98199.56;2032235;29;20234;-75
2020/12/31 02:37:48;;;;;;;180.13;71.23;;;;;;;2.27;100.00;98206.13;2032329;29;20223;-75
2020/12/31 02:38:49;;;;;;;192.70;71.07;;;;;;;2.28;100.00;98199.03;2032103;29;20227;-75
2020/12/31 02:39:50;;;;;;;184.97;71.87;;;;;;;2.32;100.00;98213.22;2031442;29;20254;-75
2020/12/31 02:40:51;;;;;;;189.38;70.28;;;;;;;2.28;100.00;98199.81;2031453;29;20471;-75
2020/12/31 02:41:52;;;;;;;182.30;73.13;;;;;;;2.25;100.00;98198.47;2031711;29;20266;-75
2020/12/31 02:42:53;;;;;;;184.02;70.65;;;;;;;2.31;100.00;98201.13;2031496;29;20725;-75
2020/12/31 02:43:54;;;;;;;170.47;70.17;;;;;;;2.36;100.00;98199.28;2031456;29;20577;-75
2020/12/31 02:44:55;;;;;;;183.13;71.30;;;;;;;2.40;100.00;98204.81;2031151;29;20291;-75
2020/12/31 02:45:56;;;;;;;166.97;68.37;;;;;;;2.44;100.00;98201.41;2031405;29;20288;-75
2020/12/31 02:46:57;;;;;;;173.65;67.82;;;;;;;2.47;100.00;98200.06;2031324;29;20243;-75
2020/12/31 02:47:58;;;;;;;164.93;66.37;;;;;;;2.46;100.00;98198.50;2023467;29;20327;-75
2020/12/31 02:48:59;;;;;;;166.63;65.60;;;;;;;2.46;100.00;98187.97;2031441;29;20228;-75
2020/12/31 02:50:00;;;;;;;147.33;60.10;;;;;;;2.47;100.00;98194.81;2031339;29;20722;-75
2020/12/31 02:51:01;;;;;;;150.63;62.38;;;;;;;2.46;100.00;98199.28;2023408;29;20232;-75
2020/12/31 02:52:02;;;;;;;141.73;59.03;;;;;;;2.25;100.00;98180.06;2031218;29;20239;-75
2020/12/31 02:53:04;;;;;;;143.63;57.28;;;;;;;2.30;100.00;98204.81;2010782;29;607307;-75
2020/12/31 02:54:05;;;;;;;137.07;57.95;;;;;;;2.25;100.00;98202.97;2031620;29;20238;-75
2020/12/31 02:55:06;;;;;;;140.00;58.13;;;;;;;2.25;100.00;98211.63;2023873;29;20232;-75
2020/12/31 02:56:11;;;;;;;162.30;59.87;;;;;;;2.32;100.00;98200.06;2031199;29;20270;-76
2020/12/31 02:57:12;;;;;;;152.05;59.00;;;;;;;2.19;100.00;98191.66;2032259;29;20235;-75
2020/12/31 02:58:13;;;;;;;153.80;59.03;;;;;;;2.21;100.00;98207.97;2031493;29;20230;-75
2020/12/31 02:59:13;;;;;;;166.18;62.03;;;;;;;2.16;100.00;98205.31;2031554;29;20262;-75
2020/12/31 03:00:17;;;;;;;160.03;58.90;;;;;;;2.24;100.00;98217.16;2032532;29;20314;-75
2020/12/31 03:01:19;;;;;;;153.85;61.60;;;;;;;2.16;100.00;98207.94;2032225;29;20239;-75
2020/12/31 03:02:20;;;;;;;155.65;62.03;;;;;;;2.22;100.00;98214.03;2032117;29;20220;-75
2020/12/31 03:03:21;;;;;;;156.48;61.33;;;;;;;2.22;100.00;98203.50;2031570;29;20227;-75
2020/12/31 03:04:22;;;;;;;151.73;58.50;;;;;;;2.27;100.00;98216.66;2023365;29;20711;-77
2020/12/31 03:05:22;;;;;;;143.32;57.83;;;;;;;2.21;100.00;98207.97;2031345;29;20239;-75
2020/12/31 03:06:24;;;;;;;154.83;60.20;;;;;;;2.18;100.00;98205.09;2032341;29;20314;-75
2020/12/31 03:07:24;;;;;;;150.68;58.38;;;;;;;2.22;100.00;98209.53;2031472;29;20231;-75
2020/12/31 03:08:27;;;;;;;146.40;57.23;;;;;;;2.23;100.00;98207.69;2031701;29;20227;-75
2020/12/31 03:09:27;;;;;;;167.57;60.13;;;;;;;2.20;100.00;98203.75;2031591;29;20228;-75
2020/12/31 03:10:29;;;;;;;161.43;61.07;;;;;;;2.16;100.00;98194.78;2023681;29;20235;-75
2020/12/31 03:11:29;;;;;;;154.90;60.28;;;;;;;2.16;100.00;98202.69;2023756;29;20236;-76
2020/12/31 03:12:31;;;;;;;166.57;58.73;;;;;;;2.15;100.00;98198.47;2031695;29;20223;-75
2020/12/31 03:13:31;;;;;;;178.38;62.65;;;;;;;2.16;100.00;98196.63;2032313;29;20260;-75
2020/12/31 03:14:33;;;;;;;172.60;62.53;;;;;;;2.16;100.00;98194.78;2032253;29;20215;-76
2020/12/31 03:15:33;;;;;;;173.68;62.97;;;;;;;2.16;100.00;98197.44;2031162;29;20687;-75
2020/12/31 03:16:34;;;;;;;194.30;64.17;;;;;;;2.12;100.00;98201.66;2031444;29;20660;-75
2020/12/31 03:17:35;;;;;;;169.40;62.90;;;;;;;2.04;100.00;98189.00;2031457;29;20227;-75
2020/12/31 03:18:37;;;;;;;179.80;60.03;;;;;;;2.22;100.00;98198.22;2032234;29;20322;-75
2020/12/31 03:19:37;;;;;;;195.95;62.28;;;;;;;2.20;100.00;98197.72;2030874;29;20912;-75
2020/12/31 03:20:43;;;;;;;196.07;65.17;;;;;;;2.13;100.00;98190.06;2031331;29;20227;-75
2020/12/31 03:21:44;;;;;;;200.55;62.50;;;;;;;2.24;100.00;98196.91;2032218;29;20227;-75
2020/12/31 03:22:45;;;;;;;190.67;63.80;;;;;;;2.15;100.00;98172.16;2031355;29;20250;-75
2020/12/31 03:23:47;;;;;;;211.80;65.47;;;;;;;2.22;100.00;98188.50;2031393;29;20227;-75
2020/12/31 03:24:48;;;;;;;188.55;64.88;;;;;;;2.22;100.00;98191.13;2031408;29;20742;-75
2020/12/31 03:25:50;;;;;;;197.48;65.00;;;;;;;2.21;100.00;98184.28;2031602;29;20231;-75
2020/12/31 03:26:51;;;;;;;215.52;64.50;;;;;;;2.19;100.00;98178.50;2032209;29;20226;-75
2020/12/31 03:27:52;;;;;;;195.18;61.58;;;;;;;2.23;100.00;98176.91;2031746;29;20231;-76
2020/12/31 03:28:53;;;;;;;186.47;62.03;;;;;;;2.26;100.00;98181.66;2032109;29;20263;-75
2020/12/31 03:29:54;;;;;;;213.25;65.28;;;;;;;2.21;100.00;98170.34;2031327;29;20675;-75
2020/12/31 03:30:55;;;;;;;229.40;66.07;;;;;;;2.26;100.00;98184.31;2031478;29;20627;-75
2020/12/31 03:31:56;;;;;;;198.82;64.97;;;;;;;2.19;100.00;98188.25;2032193;29;20318;-75
2020/12/31 03:32:57;;;;;;;216.00;63.43;;;;;;;2.11;100.00;98189.56;2032808;29;20239;-75
2020/12/31 03:33:58;;;;;;;202.88;65.80;;;;;;;2.08;100.00;98190.06;2033812;29;20219;-75
2020/12/31 03:34:59;;;;;;;217.07;65.27;;;;;;;2.12;100.00;98192.97;2033147;29;20227;-75
2020/12/31 03:36:00;;;;;;;200.02;66.15;;;;;;;2.11;100.00;98189.56;2033121;29;20304;-75
2020/12/31 03:37:01;;;;;;;185.53;64.60;;;;;;;2.10;100.00;98189.81;2033823;29;20392;-75
2020/12/31 03:38:02;;;;;;;209.60;63.13;;;;;;;2.08;100.00;98187.41;2033222;29;20262;-75
2020/12/31 03:39:04;;;;;;;210.10;61.17;;;;;;;2.11;100.00;98197.44;2033304;29;20215;-75
2020/12/31 03:40:05;;;;;;;212.85;63.20;;;;;;;2.02;100.00;98177.19;2033260;29;20227;-75
2020/12/31 03:41:06;;;;;;;211.67;63.20;;;;;;;2.08;100.00;98194.53;2032952;29;20254;-75
2020/12/31 03:42:07;;;;;;;203.40;64.28;;;;;;;2.02;100.00;98182.44;2032624;29;20231;-76
2020/12/31 03:43:09;;;;;;;244.30;62.73;;;;;;;2.01;100.00;98194.81;2033025;29;20242;-76
2020/12/31 03:44:09;;;;;;;202.75;64.45;;;;;;;1.96;100.00;98190.31;2033553;29;20704;-75
2020/12/31 03:45:11;;;;;;;201.97;65.40;;;;;;;1.89;100.00;98173.19;2033012;29;20657;-75
2020/12/31 03:46:12;;;;;;;210.13;62.85;;;;;;;1.92;100.00;98175.31;2032940;29;20297;-75
2020/12/31 03:47:13;;;;;;;204.20;65.50;;;;;;;2.02;100.00;98190.34;2033081;29;20254;-75
2020/12/31 03:48:15;;;;;;;211.18;66.38;;;;;;;2.02;100.00;98190.34;2033770;29;20227;-75
2020/12/31 03:49:15;;;;;;;204.07;62.30;;;;;;;2.00;100.00;98195.84;2033730;29;20682;-75
2020/12/31 03:50:16;;;;;;;210.27;62.63;;;;;;;2.03;100.00;98205.84;2033687;29;20626;-75
2020/12/31 03:51:17;;;;;;;212.15;64.07;;;;;;;1.93;100.00;98190.06;2033664;29;20223;-75
2020/12/31 03:52:18;;;;;;;191.20;61.60;;;;;;;2.04;100.00;98202.16;2032869;29;20753;-75
2020/12/31 03:53:19;;;;;;;183.65;61.22;;;;;;;2.05;100.00;98201.09;2032875;29;20235;-75
2020/12/31 03:54:21;;;;;;;192.48;60.30;;;;;;;2.04;100.00;98207.44;2032904;29;20237;-75
2020/12/31 03:55:22;;;;;;;179.82;59.17;;;;;;;2.03;100.00;98191.91;2032578;29;20717;-75
2020/12/31 03:56:23;;;;;;;195.63;60.15;;;;;;;1.99;100.00;98187.16;2033562;29;20286;-75
2020/12/31 03:57:24;;;;;;;195.47;56.80;;;;;;;2.09;100.00;98177.72;2033011;29;20247;-75
2020/12/31 03:58:25;;;;;;;189.23;54.97;;;;;;;2.11;100.00;98186.13;2032831;29;20235;-75
2020/12/31 03:59:26;;;;;;;191.82;55.80;;;;;;;2.05;100.00;98185.31;2033479;29;20227;-75
2020/12/31 04:00:27;;;;;;;174.95;53.70;;;;;;;2.11;100.00;98189.56;2032837;29;20239;-75
2020/12/31 04:01:29;;;;;;;161.20;52.23;;;;;;;2.16;100.00;98197.44;2032880;29;20311;-75
2020/12/31 04:02:30;;;;;;;197.77;53.95;;;;;;;2.11;100.00;98197.44;2032643;29;20232;-75
2020/12/31 04:03:31;;;;;;;194.97;55.40;;;;;;;2.01;100.00;98194.81;2032761;29;20219;-75
2020/12/31 04:04:31;;;;;;;165.25;50.95;;;;;;;2.04;100.00;98212.69;2032247;29;20266;-75
2020/12/31 04:05:33;;;;;;;192.80;54.73;;;;;;;2.03;100.00;98216.38;2032897;29;20750;-75
2020/12/31 04:06:33;;;;;;;188.63;52.10;;;;;;;1.95;100.00;98220.31;2032890;29;20224;-75
2020/12/31 04:07:35;;;;;;;166.80;51.17;;;;;;;1.97;100.00;98222.66;2033023;29;20670;-75
2020/12/31 04:08:35;;;;;;;170.63;53.58;;;;;;;1.81;100.00;98207.91;2032889;29;20562;-75
2020/12/31 04:09:37;;;;;;;170.27;50.37;;;;;;;1.80;100.00;98206.31;2033040;29;20654;-75
2020/12/31 04:10:38;;;;;;;179.45;49.97;;;;;;;1.83;100.00;98217.13;2024636;29;20622;-75
2020/12/31 04:11:39;;;;;;;160.80;51.60;;;;;;;1.89;100.00;98223.97;2032762;29;20255;-75
2020/12/31 04:12:40;;;;;;;157.27;51.30;;;;;;;1.83;100.00;98208.44;2033511;29;20222;-75
2020/12/31 04:13:41;;;;;;;167.13;50.13;;;;;;;1.84;100.00;98221.34;2033212;29;20230;-75
2020/12/31 04:14:42;;;;;;;180.35;51.05;;;;;;;1.77;100.00;98217.38;2033128;29;20234;-75
2020/12/31 04:15:43;;;;;;;174.97;49.60;;;;;;;1.75;100.00;98228.16;2032923;29;20219;-75
2020/12/31 04:16:44;;;;;;;152.93;50.47;;;;;;;1.73;100.00;98237.31;2033001;29;20234;-75
2020/12/31 04:17:45;;;;;;;164.07;49.30;;;;;;;1.72;100.00;98231.28;2032775;29;20254;-75
2020/12/31 04:18:46;;;;;;;164.73;49.97;;;;;;;1.75;100.00;98230.78;2032842;29;20322;-74
2020/12/31 04:19:47;;;;;;;161.83;51.30;;;;;;;1.66;100.00;98219.19;2032842;29;20282;-75
2020/12/31 04:20:48;;;;;;;142.55;52.20;;;;;;;1.68;100.00;98223.13;2033532;29;20283;-75
2020/12/31 04:21:49;;;;;;;157.57;50.07;;;;;;;1.64;100.00;98219.41;2033612;29;20256;-75
2020/12/31 04:22:50;;;;;;;162.95;51.47;;;;;;;1.66;100.00;98227.06;2033407;29;20223;-75
2020/12/31 04:23:51;;;;;;;169.40;52.70;;;;;;;1.65;100.00;98221.03;2032591;29;20235;-75
2020/12/31 04:24:53;;;;;;;151.30;50.40;;;;;;;1.65;100.00;98221.03;2032229;29;20251;-76
2020/12/31 04:25:54;;;;;;;154.75;49.35;;;;;;;1.68;100.00;98225.75;2032651;29;20287;-75
2020/12/31 04:26:55;;;;;;;136.50;48.13;;;;;;;1.65;100.00;98221.03;2032935;29;20354;-75
2020/12/31 04:27:56;;;;;;;149.23;49.15;;;;;;;1.58;100.00;98215.22;2032796;29;20737;-75
2020/12/31 04:28:57;;;;;;;156.87;48.17;;;;;;;1.58;100.00;98215.22;2033487;29;20634;-75
2020/12/31 04:29:58;;;;;;;154.80;48.67;;;;;;;1.61;100.00;98221.78;2032673;29;20654;-75
2020/12/31 04:30:59;;;;;;;133.77;47.50;;;;;;;1.59;100.00;98216.78;2032627;29;20299;-75
2020/12/31 04:31:59;;;;;;;150.00;47.92;;;;;;;1.59;100.00;98221.25;2032648;29;20686;-76
2020/12/31 04:33:01;;;;;;;142.23;48.70;;;;;;;1.58;100.00;98217.06;2032739;29;20639;-75
2020/12/31 04:34:01;;;;;;;154.07;48.60;;;;;;;1.63;100.00;98217.84;2033396;29;20577;-75
2020/12/31 04:35:03;;;;;;;141.53;50.37;;;;;;;1.55;100.00;98199.16;2033438;29;20231;-75
2020/12/31 04:36:04;;;;;;;151.27;48.13;;;;;;;1.68;100.00;98212.63;2033440;29;20227;-75
2020/12/31 04:37:04;;;;;;;166.60;48.25;;;;;;;1.68;100.00;98209.97;2033390;29;20255;-75
2020/12/31 04:38:06;;;;;;;164.43;51.20;;;;;;;1.59;100.00;98203.66;2033495;29;20234;-75